sensor_id;sensor_type;location;lat;lon;timestamp;temperature;humidity
17956;DHT22;27666;51.498;11.966;2024-02-28T00:02:22;5.90;99.90
17956;DHT22;27666;51.498;11.966;2024-02-28T00:05:08;5.70;99.90
17956;DHT22;27666;51.498;11.966;2024-02-28T00:07:56;5.70;99.90
17956;DHT22;27666;51.498;11.966;2024-02-28T00:10:42;5.70;99.90
17956;DHT22;27666;51.498;11.966;2024-02-28T00:13:29;5.70;99.90
17956;DHT22;27666;51.498;11.966;2024-02-28T00:16:18;5.60;99.90
17956;DHT22;27666;51.498;11.966;2024-02-28T00:19:04;5.50;99.90
17956;DHT22;27666;51.498;11.966;2024-02-28T00:21:51;5.60;99.90
17956;DHT22;27666;51.498;11.966;2024-02-28T00:24:39;5.70;99.90
17956;DHT22;27666;51.498;11.966;2024-02-28T00:27:26;5.70;99.90
17956;DHT22;27666;51.498;11.966;2024-02-28T00:30:13;5.80;99.90
17956;DHT22;27666;51.498;11.966;2024-02-28T00:33:00;5.70;99.90
17956;DHT22;27666;51.498;11.966;2024-02-28T00:35:49;5.80;99.90
17956;DHT22;27666;51.498;11.966;2024-02-28T00:38:35;5.90;99.90
17956;DHT22;27666;51.498;11.966;2024-02-28T00:41:33;6.00;99.90
17956;DHT22;27666;51.498;11.966;2024-02-28T00:44:22;6.00;99.90
17956;DHT22;27666;51.498;11.966;2024-02-28T00:47:10;6.10;99.90
17956;DHT22;27666;51.498;11.966;2024-02-28T00:49:57;6.10;99.90
17956;DHT22;27666;51.498;11.966;2024-02-28T00:52:44;6.20;99.90
17956;DHT22;27666;51.498;11.966;2024-02-28T00:55:30;6.30;99.90
17956;DHT22;27666;51.498;11.966;2024-02-28T00:58:18;6.30;99.90
17956;DHT22;27666;51.498;11.966;2024-02-28T01:01:04;6.40;99.90
17956;DHT22;27666;51.498;11.966;2024-02-28T01:03:52;6.40;99.90
17956;DHT22;27666;51.498;11.966;2024-02-28T01:06:40;6.30;99.90
17956;DHT22;27666;51.498;11.966;2024-02-28T01:09:26;6.40;99.90
17956;DHT22;27666;51.498;11.966;2024-02-28T01:12:16;6.50;99.90
17956;DHT22;27666;51.498;11.966;2024-02-28T01:15:07;6.50;99.90
17956;DHT22;27666;51.498;11.966;2024-02-28T01:17:53;6.50;99.90
17956;DHT22;27666;51.498;11.966;2024-02-28T01:20:42;6.50;99.90
17956;DHT22;27666;51.498;11.966;2024-02-28T01:23:30;6.50;99.90
17956;DHT22;27666;51.498;11.966;2024-02-28T01:26:17;6.50;99.90
17956;DHT22;27666;51.498;11.966;2024-02-28T01:29:05;6.50;99.90
17956;DHT22;27666;51.498;11.966;2024-02-28T01:31:56;6.60;99.90
17956;DHT22;27666;51.498;11.966;2024-02-28T01:34:44;6.60;99.90
17956;DHT22;27666;51.498;11.966;2024-02-28T01:37:31;6.50;99.90
17956;DHT22;27666;51.498;11.966;2024-02-28T01:40:17;6.50;99.90
17956;DHT22;27666;51.498;11.966;2024-02-28T01:43:07;6.40;99.90
17956;DHT22;27666;51.498;11.966;2024-02-28T01:45:56;6.40;99.90
17956;DHT22;27666;51.498;11.966;2024-02-28T01:48:44;6.40;99.90
17956;DHT22;27666;51.498;11.966;2024-02-28T01:51:31;6.40;99.90
17956;DHT22;27666;51.498;11.966;2024-02-28T01:54:18;6.40;99.90
17956;DHT22;27666;51.498;11.966;2024-02-28T01:57:05;6.30;99.90
17956;DHT22;27666;51.498;11.966;2024-02-28T01:59:56;6.40;99.90
17956;DHT22;27666;51.498;11.966;2024-02-28T02:02:43;6.40;99.90
17956;DHT22;27666;51.498;11.966;2024-02-28T02:05:30;6.30;99.90
17956;DHT22;27666;51.498;11.966;2024-02-28T02:08:18;6.30;99.90
17956;DHT22;27666;51.498;11.966;2024-02-28T02:11:05;6.40;99.90
17956;DHT22;27666;51.498;11.966;2024-02-28T02:13:52;6.40;99.90
17956;DHT22;27666;51.498;11.966;2024-02-28T02:16:41;6.40;99.90
17956;DHT22;27666;51.498;11.966;2024-02-28T02:19:30;6.40;99.90
17956;DHT22;27666;51.498;11.966;2024-02-28T02:22:18;6.30;99.90
17956;DHT22;27666;51.498;11.966;2024-02-28T02:25:10;6.30;99.90
17956;DHT22;27666;51.498;11.966;2024-02-28T02:27:57;6.30;99.90
17956;DHT22;27666;51.498;11.966;2024-02-28T02:30:44;6.30;99.90
17956;DHT22;27666;51.498;11.966;2024-02-28T02:33:36;6.40;99.90
17956;DHT22;27666;51.498;11.966;2024-02-28T02:36:22;6.30;99.90
17956;DHT22;27666;51.498;11.966;2024-02-28T02:39:09;6.20;99.90
17956;DHT22;27666;51.498;11.966;2024-02-28T02:41:57;6.20;99.90
17956;DHT22;27666;51.498;11.966;2024-02-28T02:44:43;6.20;99.90
17956;DHT22;27666;51.498;11.966;2024-02-28T02:47:30;6.20;99.90
17956;DHT22;27666;51.498;11.966;2024-02-28T02:50:17;6.10;99.90
17956;DHT22;27666;51.498;11.966;2024-02-28T02:53:03;6.20;99.90
17956;DHT22;27666;51.498;11.966;2024-02-28T02:55:50;6.20;99.90
17956;DHT22;27666;51.498;11.966;2024-02-28T02:58:38;6.30;99.90
17956;DHT22;27666;51.498;11.966;2024-02-28T03:01:26;6.30;99.90
17956;DHT22;27666;51.498;11.966;2024-02-28T03:04:12;6.30;99.90
17956;DHT22;27666;51.498;11.966;2024-02-28T03:06:59;6.30;99.90
17956;DHT22;27666;51.498;11.966;2024-02-28T03:09:45;6.20;99.90
17956;DHT22;27666;51.498;11.966;2024-02-28T03:12:32;6.30;99.90
17956;DHT22;27666;51.498;11.966;2024-02-28T03:15:20;6.20;99.90
17956;DHT22;27666;51.498;11.966;2024-02-28T03:18:07;6.20;99.90
17956;DHT22;27666;51.498;11.966;2024-02-28T03:20:54;6.30;99.90
17956;DHT22;27666;51.498;11.966;2024-02-28T03:23:40;6.20;99.90
17956;DHT22;27666;51.498;11.966;2024-02-28T03:26:27;6.20;99.90
17956;DHT22;27666;51.498;11.966;2024-02-28T03:29:13;6.20;99.90
17956;DHT22;27666;51.498;11.966;2024-02-28T03:32:01;6.10;99.90
17956;DHT22;27666;51.498;11.966;2024-02-28T03:34:47;6.10;99.90
17956;DHT22;27666;51.498;11.966;2024-02-28T03:37:36;6.10;99.90
17956;DHT22;27666;51.498;11.966;2024-02-28T03:40:23;6.20;99.90
17956;DHT22;27666;51.498;11.966;2024-02-28T03:43:10;6.20;99.90
17956;DHT22;27666;51.498;11.966;2024-02-28T03:45:58;6.20;99.90
17956;DHT22;27666;51.498;11.966;2024-02-28T03:48:45;6.10;99.90
17956;DHT22;27666;51.498;11.966;2024-02-28T03:51:32;6.10;99.90
17956;DHT22;27666;51.498;11.966;2024-02-28T03:54:19;6.10;99.90
17956;DHT22;27666;51.498;11.966;2024-02-28T03:57:05;6.10;99.90
17956;DHT22;27666;51.498;11.966;2024-02-28T03:59:55;6.10;99.90
17956;DHT22;27666;51.498;11.966;2024-02-28T04:02:41;6.10;99.90
17956;DHT22;27666;51.498;11.966;2024-02-28T04:05:29;6.10;99.90
17956;DHT22;27666;51.498;11.966;2024-02-28T04:08:15;6.00;99.90
17956;DHT22;27666;51.498;11.966;2024-02-28T04:11:02;6.00;99.90
17956;DHT22;27666;51.498;11.966;2024-02-28T04:13:49;6.00;99.90
17956;DHT22;27666;51.498;11.966;2024-02-28T04:16:41;6.00;99.90
17956;DHT22;27666;51.498;11.966;2024-02-28T04:19:27;5.90;99.90
17956;DHT22;27666;51.498;11.966;2024-02-28T04:22:15;5.90;99.90
17956;DHT22;27666;51.498;11.966;2024-02-28T04:25:02;5.80;99.90
17956;DHT22;27666;51.498;11.966;2024-02-28T04:27:48;5.90;99.90
17956;DHT22;27666;51.498;11.966;2024-02-28T04:30:35;5.80;99.90
17956;DHT22;27666;51.498;11.966;2024-02-28T04:33:22;5.80;99.90
17956;DHT22;27666;51.498;11.966;2024-02-28T04:36:08;5.80;99.90
17956;DHT22;27666;51.498;11.966;2024-02-28T04:38:58;5.80;99.90
17956;DHT22;27666;51.498;11.966;2024-02-28T04:41:47;5.70;99.90
17956;DHT22;27666;51.498;11.966;2024-02-28T04:44:34;5.80;99.90
17956;DHT22;27666;51.498;11.966;2024-02-28T04:47:21;5.80;99.90
17956;DHT22;27666;51.498;11.966;2024-02-28T04:50:18;5.80;99.90
17956;DHT22;27666;51.498;11.966;2024-02-28T04:53:05;5.80;99.90
17956;DHT22;27666;51.498;11.966;2024-02-28T04:55:54;5.80;99.90
17956;DHT22;27666;51.498;11.966;2024-02-28T04:58:43;5.90;99.90
17956;DHT22;27666;51.498;11.966;2024-02-28T05:01:30;6.00;99.90
17956;DHT22;27666;51.498;11.966;2024-02-28T05:04:20;6.00;99.90
17956;DHT22;27666;51.498;11.966;2024-02-28T05:07:07;5.80;99.90
17956;DHT22;27666;51.498;11.966;2024-02-28T05:09:54;5.90;99.90
17956;DHT22;27666;51.498;11.966;2024-02-28T05:12:43;5.80;99.90
17956;DHT22;27666;51.498;11.966;2024-02-28T05:15:31;5.80;99.90
17956;DHT22;27666;51.498;11.966;2024-02-28T05:18:19;5.90;99.90
17956;DHT22;27666;51.498;11.966;2024-02-28T05:21:06;5.90;99.90
17956;DHT22;27666;51.498;11.966;2024-02-28T05:23:55;5.80;99.90
17956;DHT22;27666;51.498;11.966;2024-02-28T05:26:43;5.80;99.90
17956;DHT22;27666;51.498;11.966;2024-02-28T05:29:31;5.80;99.90
17956;DHT22;27666;51.498;11.966;2024-02-28T05:32:19;5.70;99.90
17956;DHT22;27666;51.498;11.966;2024-02-28T05:35:07;5.60;99.90
17956;DHT22;27666;51.498;11.966;2024-02-28T05:37:58;5.70;99.90
17956;DHT22;27666;51.498;11.966;2024-02-28T05:40:46;5.60;99.90
17956;DHT22;27666;51.498;11.966;2024-02-28T05:43:33;5.70;99.90
17956;DHT22;27666;51.498;11.966;2024-02-28T05:46:23;5.70;99.90
17956;DHT22;27666;51.498;11.966;2024-02-28T05:49:10;5.70;99.90
17956;DHT22;27666;51.498;11.966;2024-02-28T05:51:59;5.70;99.90
17956;DHT22;27666;51.498;11.966;2024-02-28T05:54:46;5.70;99.90
17956;DHT22;27666;51.498;11.966;2024-02-28T05:57:34;5.80;99.90
17956;DHT22;27666;51.498;11.966;2024-02-28T06:00:21;5.80;99.90
17956;DHT22;27666;51.498;11.966;2024-02-28T06:03:09;5.70;99.90
17956;DHT22;27666;51.498;11.966;2024-02-28T06:05:57;5.70;99.90
17956;DHT22;27666;51.498;11.966;2024-02-28T06:08:44;5.60;99.90
17956;DHT22;27666;51.498;11.966;2024-02-28T06:11:32;5.60;99.90
17956;DHT22;27666;51.498;11.966;2024-02-28T06:14:20;5.50;99.90
17956;DHT22;27666;51.498;11.966;2024-02-28T06:17:07;5.50;99.90
17956;DHT22;27666;51.498;11.966;2024-02-28T06:19:57;5.50;99.90
17956;DHT22;27666;51.498;11.966;2024-02-28T06:22:46;5.70;99.90
17956;DHT22;27666;51.498;11.966;2024-02-28T06:25:34;5.70;99.90
17956;DHT22;27666;51.498;11.966;2024-02-28T06:28:21;5.70;99.90
17956;DHT22;27666;51.498;11.966;2024-02-28T06:31:12;5.70;99.90
17956;DHT22;27666;51.498;11.966;2024-02-28T06:34:01;5.60;99.90
17956;DHT22;27666;51.498;11.966;2024-02-28T06:36:51;5.60;99.90
17956;DHT22;27666;51.498;11.966;2024-02-28T06:39:38;5.70;99.90
17956;DHT22;27666;51.498;11.966;2024-02-28T06:42:28;5.70;99.90
17956;DHT22;27666;51.498;11.966;2024-02-28T06:45:15;5.80;99.90
17956;DHT22;27666;51.498;11.966;2024-02-28T06:48:04;5.80;99.90
17956;DHT22;27666;51.498;11.966;2024-02-28T06:50:53;6.00;99.90
17956;DHT22;27666;51.498;11.966;2024-02-28T06:53:41;5.90;99.90
17956;DHT22;27666;51.498;11.966;2024-02-28T06:56:28;5.90;99.90
17956;DHT22;27666;51.498;11.966;2024-02-28T06:59:16;5.80;99.90
17956;DHT22;27666;51.498;11.966;2024-02-28T07:02:04;5.80;99.90
17956;DHT22;27666;51.498;11.966;2024-02-28T07:04:55;5.90;99.90
17956;DHT22;27666;51.498;11.966;2024-02-28T07:07:44;5.90;99.90
17956;DHT22;27666;51.498;11.966;2024-02-28T07:10:33;6.00;99.90
17956;DHT22;27666;51.498;11.966;2024-02-28T07:13:21;5.90;99.90
17956;DHT22;27666;51.498;11.966;2024-02-28T07:16:09;5.90;99.90
17956;DHT22;27666;51.498;11.966;2024-02-28T07:18:57;5.80;99.90
17956;DHT22;27666;51.498;11.966;2024-02-28T07:21:45;5.80;99.90
17956;DHT22;27666;51.498;11.966;2024-02-28T07:24:32;5.80;99.90
17956;DHT22;27666;51.498;11.966;2024-02-28T07:27:23;5.90;99.90
17956;DHT22;27666;51.498;11.966;2024-02-28T07:30:11;6.00;99.90
17956;DHT22;27666;51.498;11.966;2024-02-28T07:32:58;6.00;99.90
17956;DHT22;27666;51.498;11.966;2024-02-28T07:35:46;6.10;99.90
17956;DHT22;27666;51.498;11.966;2024-02-28T07:38:34;6.10;99.90
17956;DHT22;27666;51.498;11.966;2024-02-28T07:41:22;6.20;99.90
17956;DHT22;27666;51.498;11.966;2024-02-28T07:44:10;6.20;99.90
17956;DHT22;27666;51.498;11.966;2024-02-28T07:47:00;6.30;99.90
17956;DHT22;27666;51.498;11.966;2024-02-28T07:49:48;6.30;99.90
17956;DHT22;27666;51.498;11.966;2024-02-28T07:52:35;6.40;99.90
17956;DHT22;27666;51.498;11.966;2024-02-28T07:55:23;6.40;99.90
17956;DHT22;27666;51.498;11.966;2024-02-28T07:58:11;6.50;99.90
17956;DHT22;27666;51.498;11.966;2024-02-28T08:01:02;6.40;99.90
17956;DHT22;27666;51.498;11.966;2024-02-28T08:03:51;6.50;99.90
17956;DHT22;27666;51.498;11.966;2024-02-28T08:06:40;6.40;99.90
17956;DHT22;27666;51.498;11.966;2024-02-28T08:09:29;6.50;99.90
17956;DHT22;27666;51.498;11.966;2024-02-28T08:12:16;6.60;99.90
17956;DHT22;27666;51.498;11.966;2024-02-28T08:15:06;6.60;99.90
17956;DHT22;27666;51.498;11.966;2024-02-28T08:17:55;6.60;99.90
17956;DHT22;27666;51.498;11.966;2024-02-28T08:20:44;6.60;99.90
17956;DHT22;27666;51.498;11.966;2024-02-28T08:23:32;6.70;99.90
17956;DHT22;27666;51.498;11.966;2024-02-28T08:26:19;6.80;99.90
17956;DHT22;27666;51.498;11.966;2024-02-28T08:29:05;6.80;99.90
17956;DHT22;27666;51.498;11.966;2024-02-28T08:31:53;6.70;99.90
17956;DHT22;27666;51.498;11.966;2024-02-28T08:34:44;6.60;99.90
17956;DHT22;27666;51.498;11.966;2024-02-28T08:37:31;6.70;99.90
17956;DHT22;27666;51.498;11.966;2024-02-28T08:40:18;6.70;99.90
17956;DHT22;27666;51.498;11.966;2024-02-28T08:43:07;6.80;99.90
17956;DHT22;27666;51.498;11.966;2024-02-28T08:45:55;6.60;99.90
17956;DHT22;27666;51.498;11.966;2024-02-28T08:48:42;6.50;99.90
17956;DHT22;27666;51.498;11.966;2024-02-28T08:51:32;6.70;99.90
17956;DHT22;27666;51.498;11.966;2024-02-28T08:54:19;6.80;99.90
17956;DHT22;27666;51.498;11.966;2024-02-28T08:57:11;6.80;99.90
17956;DHT22;27666;51.498;11.966;2024-02-28T08:59:59;6.80;99.90
17956;DHT22;27666;51.498;11.966;2024-02-28T09:02:46;6.80;99.90
17956;DHT22;27666;51.498;11.966;2024-02-28T09:05:33;6.80;99.90
17956;DHT22;27666;51.498;11.966;2024-02-28T09:08:23;6.80;99.90
17956;DHT22;27666;51.498;11.966;2024-02-28T09:11:10;6.90;99.90
17956;DHT22;27666;51.498;11.966;2024-02-28T09:13:59;7.20;99.90
17956;DHT22;27666;51.498;11.966;2024-02-28T09:16:46;7.40;99.90
17956;DHT22;27666;51.498;11.966;2024-02-28T09:19:33;7.40;99.90
17956;DHT22;27666;51.498;11.966;2024-02-28T09:22:22;7.50;99.90
17956;DHT22;27666;51.498;11.966;2024-02-28T09:25:12;7.50;99.90
17956;DHT22;27666;51.498;11.966;2024-02-28T09:28:01;7.50;99.90
17956;DHT22;27666;51.498;11.966;2024-02-28T09:30:49;7.40;99.90
17956;DHT22;27666;51.498;11.966;2024-02-28T09:33:39;7.50;99.90
17956;DHT22;27666;51.498;11.966;2024-02-28T09:36:26;7.60;99.90
17956;DHT22;27666;51.498;11.966;2024-02-28T09:39:13;7.80;99.90
17956;DHT22;27666;51.498;11.966;2024-02-28T09:42:04;8.00;99.90
17956;DHT22;27666;51.498;11.966;2024-02-28T09:44:52;8.20;99.90
17956;DHT22;27666;51.498;11.966;2024-02-28T09:47:41;8.30;99.90
17956;DHT22;27666;51.498;11.966;2024-02-28T09:50:28;8.40;99.90
17956;DHT22;27666;51.498;11.966;2024-02-28T09:53:15;8.50;99.90
17956;DHT22;27666;51.498;11.966;2024-02-28T09:56:02;8.60;99.90
17956;DHT22;27666;51.498;11.966;2024-02-28T09:58:51;8.70;99.90
17956;DHT22;27666;51.498;11.966;2024-02-28T10:01:43;8.80;99.90
17956;DHT22;27666;51.498;11.966;2024-02-28T10:04:31;8.90;99.90
17956;DHT22;27666;51.498;11.966;2024-02-28T10:07:19;9.00;99.90
17956;DHT22;27666;51.498;11.966;2024-02-28T10:10:09;9.20;99.90
17956;DHT22;27666;51.498;11.966;2024-02-28T10:12:58;9.20;99.90
17956;DHT22;27666;51.498;11.966;2024-02-28T10:15:50;9.30;99.90
17956;DHT22;27666;51.498;11.966;2024-02-28T10:18:37;9.40;99.90
17956;DHT22;27666;51.498;11.966;2024-02-28T10:21:25;9.30;99.90
17956;DHT22;27666;51.498;11.966;2024-02-28T10:24:12;9.50;99.90
17956;DHT22;27666;51.498;11.966;2024-02-28T10:27:01;9.50;99.90
17956;DHT22;27666;51.498;11.966;2024-02-28T10:29:48;9.50;99.90
17956;DHT22;27666;51.498;11.966;2024-02-28T10:32:48;9.50;99.90
17956;DHT22;27666;51.498;11.966;2024-02-28T10:35:38;9.60;99.90
17956;DHT22;27666;51.498;11.966;2024-02-28T10:38:26;9.80;99.90
17956;DHT22;27666;51.498;11.966;2024-02-28T10:41:15;9.70;99.90
17956;DHT22;27666;51.498;11.966;2024-02-28T10:44:02;9.70;99.90
17956;DHT22;27666;51.498;11.966;2024-02-28T10:46:49;9.60;99.90
17956;DHT22;27666;51.498;11.966;2024-02-28T10:49:39;9.70;99.90
17956;DHT22;27666;51.498;11.966;2024-02-28T10:52:27;9.70;99.90
17956;DHT22;27666;51.498;11.966;2024-02-28T10:55:14;9.70;99.90
17956;DHT22;27666;51.498;11.966;2024-02-28T10:58:06;9.50;99.90
17956;DHT22;27666;51.498;11.966;2024-02-28T11:00:53;9.50;99.90
17956;DHT22;27666;51.498;11.966;2024-02-28T11:03:42;9.40;99.90
17956;DHT22;27666;51.498;11.966;2024-02-28T11:06:32;9.50;99.90
17956;DHT22;27666;51.498;11.966;2024-02-28T11:09:19;9.40;99.90
17956;DHT22;27666;51.498;11.966;2024-02-28T11:12:25;9.50;99.90
17956;DHT22;27666;51.498;11.966;2024-02-28T11:15:17;9.50;99.90
17956;DHT22;27666;51.498;11.966;2024-02-28T11:18:08;9.50;99.90
17956;DHT22;27666;51.498;11.966;2024-02-28T11:20:56;9.60;99.90
17956;DHT22;27666;51.498;11.966;2024-02-28T11:23:46;9.40;99.90
17956;DHT22;27666;51.498;11.966;2024-02-28T11:26:34;9.30;99.90
17956;DHT22;27666;51.498;11.966;2024-02-28T11:29:24;9.20;99.90
17956;DHT22;27666;51.498;11.966;2024-02-28T11:32:12;9.10;99.90
17956;DHT22;27666;51.498;11.966;2024-02-28T11:35:00;9.20;99.90
17956;DHT22;27666;51.498;11.966;2024-02-28T11:37:49;9.20;99.90
17956;DHT22;27666;51.498;11.966;2024-02-28T11:40:38;9.10;99.90
17956;DHT22;27666;51.498;11.966;2024-02-28T11:43:26;9.00;99.90
17956;DHT22;27666;51.498;11.966;2024-02-28T11:46:15;8.90;99.90
17956;DHT22;27666;51.498;11.966;2024-02-28T11:49:04;8.90;99.90
17956;DHT22;27666;51.498;11.966;2024-02-28T11:51:54;8.90;99.90
17956;DHT22;27666;51.498;11.966;2024-02-28T11:54:41;8.90;99.90
17956;DHT22;27666;51.498;11.966;2024-02-28T11:57:29;8.80;99.90
17956;DHT22;27666;51.498;11.966;2024-02-28T12:00:19;8.70;99.90
17956;DHT22;27666;51.498;11.966;2024-02-28T12:03:08;8.70;99.90
17956;DHT22;27666;51.498;11.966;2024-02-28T12:05:56;8.70;99.90
17956;DHT22;27666;51.498;11.966;2024-02-28T12:08:45;8.60;99.90
17956;DHT22;27666;51.498;11.966;2024-02-28T12:11:31;8.50;99.90
17956;DHT22;27666;51.498;11.966;2024-02-28T12:14:20;8.50;99.90
17956;DHT22;27666;51.498;11.966;2024-02-28T12:17:08;8.50;99.90
17956;DHT22;27666;51.498;11.966;2024-02-28T12:19:54;8.60;99.90
17956;DHT22;27666;51.498;11.966;2024-02-28T12:22:41;8.70;99.90
17956;DHT22;27666;51.498;11.966;2024-02-28T12:25:29;8.80;99.90
17956;DHT22;27666;51.498;11.966;2024-02-28T12:28:15;8.80;99.90
17956;DHT22;27666;51.498;11.966;2024-02-28T12:31:04;8.80;99.90
17956;DHT22;27666;51.498;11.966;2024-02-28T12:33:54;8.70;99.90
17956;DHT22;27666;51.498;11.966;2024-02-28T12:36:42;8.70;99.90
17956;DHT22;27666;51.498;11.966;2024-02-28T12:39:32;8.60;99.90
17956;DHT22;27666;51.498;11.966;2024-02-28T12:42:20;8.50;99.90
17956;DHT22;27666;51.498;11.966;2024-02-28T12:45:08;8.50;99.90
17956;DHT22;27666;51.498;11.966;2024-02-28T12:47:59;8.50;99.90
17956;DHT22;27666;51.498;11.966;2024-02-28T12:50:49;8.40;99.90
17956;DHT22;27666;51.498;11.966;2024-02-28T12:53:37;8.40;99.90
17956;DHT22;27666;51.498;11.966;2024-02-28T12:56:25;8.40;99.90
17956;DHT22;27666;51.498;11.966;2024-02-28T13:01:59;8.30;99.90
17956;DHT22;27666;51.498;11.966;2024-02-28T13:04:48;8.30;99.90
17956;DHT22;27666;51.498;11.966;2024-02-28T13:07:36;8.40;99.90
17956;DHT22;27666;51.498;11.966;2024-02-28T13:10:24;8.30;99.90
17956;DHT22;27666;51.498;11.966;2024-02-28T13:13:11;8.50;99.90
17956;DHT22;27666;51.498;11.966;2024-02-28T13:15:58;8.50;99.90
17956;DHT22;27666;51.498;11.966;2024-02-28T13:18:47;8.60;99.90
17956;DHT22;27666;51.498;11.966;2024-02-28T13:21:35;8.60;99.90
17956;DHT22;27666;51.498;11.966;2024-02-28T13:24:23;8.60;99.90
17956;DHT22;27666;51.498;11.966;2024-02-28T13:27:10;8.70;99.90
17956;DHT22;27666;51.498;11.966;2024-02-28T13:29:57;8.60;99.90
17956;DHT22;27666;51.498;11.966;2024-02-28T13:32:45;8.60;99.90
17956;DHT22;27666;51.498;11.966;2024-02-28T13:35:35;8.70;99.90
17956;DHT22;27666;51.498;11.966;2024-02-28T13:38:26;8.60;99.90
17956;DHT22;27666;51.498;11.966;2024-02-28T13:41:14;8.50;99.90
17956;DHT22;27666;51.498;11.966;2024-02-28T13:44:02;8.40;99.90
17956;DHT22;27666;51.498;11.966;2024-02-28T13:46:50;8.40;99.90
17956;DHT22;27666;51.498;11.966;2024-02-28T13:49:39;8.40;99.90
17956;DHT22;27666;51.498;11.966;2024-02-28T13:52:26;8.30;99.90
17956;DHT22;27666;51.498;11.966;2024-02-28T13:55:15;8.40;99.90
17956;DHT22;27666;51.498;11.966;2024-02-28T13:58:03;8.40;99.90
17956;DHT22;27666;51.498;11.966;2024-02-28T14:00:52;8.40;99.90
17956;DHT22;27666;51.498;11.966;2024-02-28T14:03:40;8.40;99.90
17956;DHT22;27666;51.498;11.966;2024-02-28T14:06:28;8.40;99.90
17956;DHT22;27666;51.498;11.966;2024-02-28T14:09:15;8.50;99.90
17956;DHT22;27666;51.498;11.966;2024-02-28T14:12:04;8.50;99.90
17956;DHT22;27666;51.498;11.966;2024-02-28T14:14:51;8.60;99.90
17956;DHT22;27666;51.498;11.966;2024-02-28T14:17:39;8.60;99.90
17956;DHT22;27666;51.498;11.966;2024-02-28T14:20:27;8.60;99.90
17956;DHT22;27666;51.498;11.966;2024-02-28T14:23:14;8.70;99.90
17956;DHT22;27666;51.498;11.966;2024-02-28T14:26:01;8.70;99.90
17956;DHT22;27666;51.498;11.966;2024-02-28T14:28:51;8.70;99.90
17956;DHT22;27666;51.498;11.966;2024-02-28T14:31:40;8.60;99.90
17956;DHT22;27666;51.498;11.966;2024-02-28T14:34:28;8.60;99.90
17956;DHT22;27666;51.498;11.966;2024-02-28T14:37:17;8.60;99.90
17956;DHT22;27666;51.498;11.966;2024-02-28T14:40:04;8.60;99.90
17956;DHT22;27666;51.498;11.966;2024-02-28T14:42:55;8.60;99.90
17956;DHT22;27666;51.498;11.966;2024-02-28T14:45:44;8.70;99.90
17956;DHT22;27666;51.498;11.966;2024-02-28T14:48:34;8.70;99.90
17956;DHT22;27666;51.498;11.966;2024-02-28T14:51:21;8.70;99.90
17956;DHT22;27666;51.498;11.966;2024-02-28T14:54:09;8.80;99.90
17956;DHT22;27666;51.498;11.966;2024-02-28T14:56:56;8.80;99.90
17956;DHT22;27666;51.498;11.966;2024-02-28T14:59:43;8.90;99.90
17956;DHT22;27666;51.498;11.966;2024-02-28T15:02:32;8.90;99.90
17956;DHT22;27666;51.498;11.966;2024-02-28T15:05:20;8.90;99.90
17956;DHT22;27666;51.498;11.966;2024-02-28T15:08:07;8.90;99.90
17956;DHT22;27666;51.498;11.966;2024-02-28T15:10:54;9.00;99.90
17956;DHT22;27666;51.498;11.966;2024-02-28T15:13:42;9.00;99.90
17956;DHT22;27666;51.498;11.966;2024-02-28T15:16:29;9.10;99.90
17956;DHT22;27666;51.498;11.966;2024-02-28T15:19:19;9.10;99.90
17956;DHT22;27666;51.498;11.966;2024-02-28T15:22:07;9.00;99.90
17956;DHT22;27666;51.498;11.966;2024-02-28T15:24:55;9.00;99.90
17956;DHT22;27666;51.498;11.966;2024-02-28T15:27:43;9.00;99.90
17956;DHT22;27666;51.498;11.966;2024-02-28T15:30:30;9.00;99.90
17956;DHT22;27666;51.498;11.966;2024-02-28T15:33:17;9.10;99.90
17956;DHT22;27666;51.498;11.966;2024-02-28T15:36:07;9.10;99.90
17956;DHT22;27666;51.498;11.966;2024-02-28T15:38:56;9.20;99.90
17956;DHT22;27666;51.498;11.966;2024-02-28T15:41:44;9.10;99.90
17956;DHT22;27666;51.498;11.966;2024-02-28T15:44:31;9.20;99.90
17956;DHT22;27666;51.498;11.966;2024-02-28T15:47:20;9.10;99.90
17956;DHT22;27666;51.498;11.966;2024-02-28T15:50:09;9.10;99.90
17956;DHT22;27666;51.498;11.966;2024-02-28T15:52:59;9.10;99.90
17956;DHT22;27666;51.498;11.966;2024-02-28T15:55:46;9.10;99.90
17956;DHT22;27666;51.498;11.966;2024-02-28T15:58:33;9.00;99.90
17956;DHT22;27666;51.498;11.966;2024-02-28T16:01:20;8.90;99.90
17956;DHT22;27666;51.498;11.966;2024-02-28T16:04:07;9.00;99.90
17956;DHT22;27666;51.498;11.966;2024-02-28T16:06:55;9.00;99.90
17956;DHT22;27666;51.498;11.966;2024-02-28T16:09:47;9.00;99.90
17956;DHT22;27666;51.498;11.966;2024-02-28T16:12:36;8.90;99.90
17956;DHT22;27666;51.498;11.966;2024-02-28T16:15:27;8.90;99.90
17956;DHT22;27666;51.498;11.966;2024-02-28T16:18:17;8.90;99.90
17956;DHT22;27666;51.498;11.966;2024-02-28T16:21:04;8.80;99.90
17956;DHT22;27666;51.498;11.966;2024-02-28T16:23:51;8.80;99.90
17956;DHT22;27666;51.498;11.966;2024-02-28T16:26:43;8.80;99.90
17956;DHT22;27666;51.498;11.966;2024-02-28T16:29:32;8.70;99.90
17956;DHT22;27666;51.498;11.966;2024-02-28T16:32:20;8.70;99.90
17956;DHT22;27666;51.498;11.966;2024-02-28T16:35:09;8.70;99.90
17956;DHT22;27666;51.498;11.966;2024-02-28T16:37:57;8.60;99.90
17956;DHT22;27666;51.498;11.966;2024-02-28T16:40:44;8.60;99.90
17956;DHT22;27666;51.498;11.966;2024-02-28T16:43:36;8.50;99.90
17956;DHT22;27666;51.498;11.966;2024-02-28T16:46:23;8.50;99.90
17956;DHT22;27666;51.498;11.966;2024-02-28T16:49:10;8.50;99.90
17956;DHT22;27666;51.498;11.966;2024-02-28T16:51:58;8.40;99.90
17956;DHT22;27666;51.498;11.966;2024-02-28T16:54:45;8.40;99.90
17956;DHT22;27666;51.498;11.966;2024-02-28T16:57:32;8.40;99.90
17956;DHT22;27666;51.498;11.966;2024-02-28T17:00:21;8.40;99.90
17956;DHT22;27666;51.498;11.966;2024-02-28T17:03:09;8.30;99.90
17956;DHT22;27666;51.498;11.966;2024-02-28T17:05:55;8.30;99.90
17956;DHT22;27666;51.498;11.966;2024-02-28T17:08:44;8.20;99.90
17956;DHT22;27666;51.498;11.966;2024-02-28T17:11:32;8.20;99.90
17956;DHT22;27666;51.498;11.966;2024-02-28T17:14:20;8.10;99.90
17956;DHT22;27666;51.498;11.966;2024-02-28T17:17:09;8.00;99.90
17956;DHT22;27666;51.498;11.966;2024-02-28T17:19:56;8.00;99.90
17956;DHT22;27666;51.498;11.966;2024-02-28T17:22:43;8.00;99.90
17956;DHT22;27666;51.498;11.966;2024-02-28T17:25:32;8.00;99.90
17956;DHT22;27666;51.498;11.966;2024-02-28T17:28:20;7.90;99.90
17956;DHT22;27666;51.498;11.966;2024-02-28T17:31:07;7.90;99.90
17956;DHT22;27666;51.498;11.966;2024-02-28T17:33:56;7.90;99.90
17956;DHT22;27666;51.498;11.966;2024-02-28T17:36:43;7.90;99.90
17956;DHT22;27666;51.498;11.966;2024-02-28T17:39:31;7.90;99.90
17956;DHT22;27666;51.498;11.966;2024-02-28T17:42:19;7.80;99.90
17956;DHT22;27666;51.498;11.966;2024-02-28T17:45:07;7.80;99.90